createdAt,value
2018-06-11T00:00:48.732Z,930.14
2018-06-11T00:01:48.779Z,930.18
2018-06-11T00:02:48.819Z,930.20
2018-06-11T00:03:48.871Z,930.24
2018-06-11T00:04:48.912Z,930.23
2018-06-11T00:05:49.162Z,930.22
2018-06-11T00:06:49.012Z,930.32
2018-06-11T00:07:49.049Z,930.28
2018-06-11T00:08:49.097Z,930.28
2018-06-11T00:09:49.142Z,930.27
2018-06-11T00:10:49.281Z,930.28
2018-06-11T00:11:49.232Z,930.29
2018-06-11T00:12:49.271Z,930.28
2018-06-11T00:13:49.332Z,930.27
2018-06-11T00:14:49.369Z,930.30
2018-06-11T00:15:49.406Z,930.24
2018-06-11T00:16:49.453Z,930.28
2018-06-11T00:17:49.501Z,930.28
2018-06-11T00:18:49.555Z,930.27
2018-06-11T00:19:49.592Z,930.28
2018-06-11T00:20:49.734Z,930.32
2018-06-11T00:21:49.677Z,930.33
2018-06-11T00:22:49.731Z,930.34
2018-06-11T00:23:49.780Z,930.31
2018-06-11T00:24:49.824Z,930.32
2018-06-11T00:25:49.856Z,930.33
2018-06-11T00:26:49.904Z,930.30
2018-06-11T00:27:50.055Z,930.32
2018-06-11T00:28:50.003Z,930.36
2018-06-11T00:29:50.068Z,930.37
2018-06-11T00:30:50.103Z,930.36
2018-06-11T00:31:50.142Z,930.36
2018-06-11T00:32:50.346Z,930.35
2018-06-11T00:33:50.222Z,930.29
2018-06-11T00:34:50.272Z,930.32
2018-06-11T00:35:50.310Z,930.30
2018-06-11T00:36:50.355Z,930.33
2018-06-11T00:37:50.445Z,930.30
2018-06-11T00:38:50.447Z,930.29
2018-06-11T00:39:50.492Z,930.25
2018-06-11T00:40:50.533Z,930.30
2018-06-11T00:41:50.585Z,930.29
2018-06-11T00:42:50.734Z,930.29
2018-06-11T00:43:50.970Z,930.34
2018-06-11T00:44:50.716Z,930.35
2018-06-11T00:45:50.759Z,930.31
2018-06-11T00:46:50.809Z,930.33
2018-06-11T00:47:50.864Z,930.31
2018-06-11T00:48:51.115Z,930.28
2018-06-11T00:49:51.048Z,930.26
2018-06-11T00:50:50.991Z,930.29
2018-06-11T00:51:51.043Z,930.24
2018-06-11T00:52:51.085Z,930.22
2018-06-11T00:53:51.123Z,930.25
2018-06-11T00:54:51.265Z,930.22
2018-06-11T00:55:51.222Z,930.21
2018-06-11T00:56:51.266Z,930.22
2018-06-11T00:57:51.301Z,930.14
2018-06-11T00:58:51.344Z,930.18
2018-06-11T00:59:51.390Z,930.19
2018-06-11T01:00:51.538Z,930.13
2018-06-11T01:01:51.481Z,930.15
2018-06-11T01:02:51.530Z,930.15
2018-06-11T01:03:51.578Z,930.15
2018-06-11T01:04:51.623Z,930.18
2018-06-11T01:05:51.666Z,930.14
2018-06-11T01:06:51.708Z,930.15
2018-06-11T01:07:51.752Z,930.16
2018-06-11T01:08:51.801Z,930.20
2018-06-11T01:09:51.852Z,930.21
2018-06-11T01:10:51.883Z,930.22
2018-06-11T01:11:52.036Z,930.19
2018-06-11T01:12:51.984Z,930.20
2018-06-11T01:13:52.033Z,930.24
2018-06-11T01:14:52.069Z,930.28
2018-06-11T01:15:52.112Z,930.26
2018-06-11T01:16:52.155Z,930.26
2018-06-11T01:17:52.400Z,930.27
2018-06-11T01:18:52.244Z,930.29
2018-06-11T01:19:52.297Z,930.31
2018-06-11T01:20:52.334Z,930.31
2018-06-11T01:21:52.389Z,930.30
2018-06-11T01:22:52.535Z,930.28
2018-06-11T01:23:52.474Z,930.27
2018-06-11T01:24:52.514Z,930.28
2018-06-11T01:25:52.572Z,930.30
2018-06-11T01:26:52.602Z,930.27
2018-06-11T01:27:52.651Z,930.29
2018-06-11T01:28:52.692Z,930.31
2018-06-11T01:29:52.737Z,930.27
2018-06-11T01:30:52.780Z,930.26
2018-06-11T01:31:52.841Z,930.23
2018-06-11T01:32:52.977Z,930.25
2018-06-11T01:33:52.921Z,930.21
2018-06-11T01:34:52.960Z,930.20
2018-06-11T01:35:53.013Z,930.20
2018-06-11T01:36:53.050Z,930.16
2018-06-11T01:37:53.097Z,930.18
2018-06-11T01:38:53.151Z,930.18
2018-06-11T01:39:53.197Z,930.17
2018-06-11T01:40:53.233Z,930.17
2018-06-11T01:41:53.272Z,930.14
2018-06-11T01:42:53.419Z,930.13
2018-06-11T01:43:53.363Z,930.08
2018-06-11T01:44:53.421Z,930.10
2018-06-11T01:45:53.458Z,930.13
2018-06-11T01:46:53.501Z,930.13
2018-06-11T01:47:53.554Z,930.16
2018-06-11T01:48:53.592Z,930.20
2018-06-11T01:49:53.738Z,930.16
2018-06-11T01:50:53.694Z,930.16
2018-06-11T01:51:53.721Z,930.14
2018-06-11T01:52:53.771Z,930.07
2018-06-11T01:53:53.825Z,930.10
2018-06-11T01:54:53.859Z,930.06
2018-06-11T01:55:53.901Z,930.08
2018-06-11T01:56:53.943Z,930.12
2018-06-11T01:57:54.003Z,930.10
2018-06-11T01:58:54.040Z,930.09
2018-06-11T01:59:54.294Z,930.12
2018-06-11T02:00:54.124Z,930.08
2018-06-11T02:01:54.162Z,930.10
2018-06-11T02:02:54.209Z,930.11
2018-06-11T02:03:54.261Z,930.13
2018-06-11T02:04:54.400Z,930.11
2018-06-11T02:05:54.348Z,930.14
2018-06-11T02:06:54.388Z,930.08
2018-06-11T02:07:54.434Z,930.13
2018-06-11T02:08:54.479Z,930.10
2018-06-11T02:09:54.526Z,930.13
2018-06-11T02:10:54.777Z,930.11
2018-06-11T02:11:54.614Z,930.09
2018-06-11T02:12:54.661Z,930.11
2018-06-11T02:13:54.704Z,930.17
2018-06-11T02:14:54.751Z,930.09
2018-06-11T02:15:54.894Z,930.09
2018-06-11T02:16:54.834Z,930.08
2018-06-11T02:17:54.878Z,930.04
2018-06-11T02:18:54.920Z,930.06
2018-06-11T02:19:54.964Z,930.08
2018-06-11T02:20:55.017Z,930.07
2018-06-11T02:21:55.064Z,930.09
2018-06-11T02:22:55.202Z,930.09
2018-06-11T02:23:55.157Z,930.09
2018-06-11T02:24:55.192Z,930.10
2018-06-11T02:25:55.237Z,930.08
2018-06-11T02:26:55.293Z,930.04
2018-06-11T02:27:55.420Z,930.04
2018-06-11T02:28:55.369Z,930.04
2018-06-11T02:29:55.407Z,930.04
2018-06-11T02:30:55.458Z,930.01
2018-06-11T02:31:55.497Z,930.01
2018-06-11T02:32:55.809Z,929.98
2018-06-11T02:33:55.594Z,929.96
2018-06-11T02:34:55.627Z,929.98
2018-06-11T02:35:55.676Z,929.97
2018-06-11T02:36:55.719Z,930.02
2018-06-11T02:37:55.861Z,930.01
2018-06-11T02:38:56.016Z,930.01
2018-06-11T02:39:55.851Z,930.03
2018-06-11T02:40:55.898Z,930.04
2018-06-11T02:41:55.944Z,930.07
2018-06-11T02:42:55.991Z,930.04
2018-06-11T02:43:56.337Z,930.05
2018-06-11T02:44:56.185Z,930.01
2018-06-11T02:45:56.130Z,930.05
2018-06-11T02:46:56.177Z,930.01
2018-06-11T02:47:56.214Z,930.00
2018-06-11T02:48:56.259Z,929.94
2018-06-11T02:49:56.508Z,929.95
2018-06-11T02:50:56.351Z,929.90
2018-06-11T02:51:56.402Z,929.90
2018-06-11T02:52:56.430Z,929.91
2018-06-11T02:53:56.467Z,929.87
2018-06-11T02:54:56.523Z,929.89
2018-06-11T02:55:56.660Z,929.85
2018-06-11T02:56:56.628Z,929.85
2018-06-11T02:57:56.653Z,929.85
2018-06-11T02:58:56.694Z,929.86
2018-06-11T02:59:56.748Z,929.89
2018-06-11T03:00:56.793Z,929.91
2018-06-11T03:01:56.825Z,929.91
2018-06-11T03:02:56.870Z,929.88
2018-06-11T03:03:56.916Z,929.91
2018-06-11T03:04:56.959Z,929.95
2018-06-11T03:05:57.204Z,929.96
2018-06-11T03:06:57.051Z,929.92
2018-06-11T03:07:57.089Z,929.92
2018-06-11T03:08:57.135Z,929.91
2018-06-11T03:09:57.191Z,929.92
2018-06-11T03:10:57.322Z,929.87
2018-06-11T03:11:57.275Z,929.92
2018-06-11T03:12:57.320Z,929.90
2018-06-11T03:13:57.366Z,929.92
2018-06-11T03:14:57.400Z,929.90
2018-06-11T03:15:57.448Z,929.92
2018-06-11T03:16:57.693Z,929.91
2018-06-11T03:17:57.532Z,929.90
2018-06-11T03:18:57.577Z,929.88
2018-06-11T03:19:57.629Z,929.92
2018-06-11T03:20:57.666Z,929.94
2018-06-11T03:21:57.712Z,929.92
2018-06-11T03:22:57.848Z,929.94
2018-06-11T03:23:57.800Z,929.95
2018-06-11T03:24:57.853Z,929.95
2018-06-11T03:25:57.881Z,929.95
2018-06-11T03:26:57.931Z,929.94
2018-06-11T03:27:58.177Z,929.95
2018-06-11T03:28:58.014Z,929.97
2018-06-11T03:29:58.071Z,929.95
2018-06-11T03:30:58.111Z,929.98
2018-06-11T03:31:58.163Z,929.98
2018-06-11T03:32:58.203Z,929.99
2018-06-11T03:33:58.238Z,930.03
2018-06-11T03:34:58.282Z,930.04
2018-06-11T03:35:58.335Z,930.02
2018-06-11T03:36:58.363Z,930.00
2018-06-11T03:37:58.508Z,930.02
2018-06-11T03:38:58.471Z,930.01
2018-06-11T03:39:58.504Z,930.04
2018-06-11T03:40:58.546Z,930.07
2018-06-11T03:41:58.590Z,930.06
2018-06-11T03:42:58.632Z,930.04
2018-06-11T03:43:58.877Z,930.02
2018-06-11T03:44:58.727Z,930.07
2018-06-11T03:45:58.771Z,930.05
2018-06-11T03:46:58.800Z,930.09
2018-06-11T03:47:58.846Z,930.04
2018-06-11T03:48:58.993Z,930.06
2018-06-11T03:49:58.945Z,930.11
2018-06-11T03:50:58.989Z,930.12
2018-06-11T03:51:59.023Z,930.11
2018-06-11T03:52:59.071Z,930.14
2018-06-11T03:53:59.116Z,930.15
2018-06-11T03:54:59.352Z,930.19
2018-06-11T03:55:59.214Z,930.13
2018-06-11T03:56:59.251Z,930.09
2018-06-11T03:57:59.292Z,930.14
2018-06-11T03:58:59.329Z,930.16
2018-06-11T03:59:59.372Z,930.11
2018-06-11T04:00:59.421Z,930.06
2018-06-11T04:01:59.470Z,930.07
2018-06-11T04:02:59.503Z,930.04
2018-06-11T04:03:59.551Z,930.02
2018-06-11T04:04:59.703Z,929.98
2018-06-11T04:05:59.643Z,929.98
2018-06-11T04:06:59.685Z,930.04
2018-06-11T04:07:59.736Z,930.02
2018-06-11T04:08:59.777Z,930.02
2018-06-11T04:10:00.023Z,929.98
2018-06-11T04:10:59.937Z,929.95
2018-06-11T04:11:59.913Z,929.96
2018-06-11T04:12:59.953Z,929.95
2018-06-11T04:13:59.987Z,929.90
2018-06-11T04:15:00.052Z,929.88
2018-06-11T04:16:00.186Z,929.87
2018-06-11T04:17:00.130Z,929.88
2018-06-11T04:18:00.173Z,929.83
2018-06-11T04:19:00.206Z,929.85
2018-06-11T04:20:00.256Z,929.81
2018-06-11T04:21:00.300Z,929.75
2018-06-11T04:22:00.335Z,929.76
2018-06-11T04:23:00.385Z,929.68
2018-06-11T04:24:00.431Z,929.72
2018-06-11T04:25:00.475Z,929.69
2018-06-11T04:26:00.728Z,929.71
2018-06-11T04:27:00.565Z,929.73
2018-06-11T04:28:00.601Z,929.66
2018-06-11T04:29:00.650Z,929.67
2018-06-11T04:30:00.685Z,929.69
2018-06-11T04:31:00.834Z,929.66
2018-06-11T04:32:00.777Z,929.71
2018-06-11T04:33:00.823Z,929.64
2018-06-11T04:34:00.859Z,929.70
2018-06-11T04:35:00.906Z,929.74
2018-06-11T04:36:00.946Z,929.71
2018-06-11T04:37:01.193Z,929.67
2018-06-11T04:38:01.050Z,929.70
2018-06-11T04:39:01.092Z,929.70
2018-06-11T04:40:01.129Z,929.70
2018-06-11T04:41:01.183Z,929.74
2018-06-11T04:42:01.308Z,929.67
2018-06-11T04:43:01.250Z,929.74
2018-06-11T04:44:01.305Z,929.68
2018-06-11T04:45:01.345Z,929.65
2018-06-11T04:46:01.391Z,929.62
2018-06-11T04:47:01.426Z,929.59
2018-06-11T04:48:01.674Z,929.58
2018-06-11T04:49:01.511Z,929.55
2018-06-11T04:50:01.563Z,929.51
2018-06-11T04:51:01.603Z,929.47
2018-06-11T04:52:01.647Z,929.48
2018-06-11T04:53:01.690Z,929.47
2018-06-11T04:54:01.836Z,929.45
2018-06-11T04:55:01.811Z,929.39
2018-06-11T04:56:01.818Z,929.39
2018-06-11T04:57:01.862Z,929.36
2018-06-11T04:58:01.908Z,929.31
2018-06-11T04:59:01.958Z,929.33
2018-06-11T05:00:02.206Z,929.34
2018-06-11T05:01:02.047Z,929.33
2018-06-11T05:02:02.102Z,929.31
2018-06-11T05:03:02.125Z,929.29
2018-06-11T05:04:02.166Z,929.26
2018-06-11T05:05:02.227Z,929.24
2018-06-11T05:06:02.253Z,929.24
2018-06-11T05:07:02.294Z,929.24
2018-06-11T05:08:02.371Z,929.24
2018-06-11T05:09:02.392Z,929.23
2018-06-11T05:10:02.552Z,929.18
2018-06-11T05:11:02.480Z,929.17
2018-06-11T05:12:02.521Z,929.16
2018-06-11T05:13:02.558Z,929.18
2018-06-11T05:14:02.605Z,929.18
2018-06-11T05:15:02.649Z,929.22
2018-06-11T05:16:02.695Z,929.23
2018-06-11T05:17:02.731Z,929.22
2018-06-11T05:18:02.774Z,929.26
2018-06-11T05:19:02.832Z,929.23
2018-06-11T05:20:02.966Z,929.21
2018-06-11T05:21:02.916Z,929.22
2018-06-11T05:22:02.957Z,929.22
2018-06-11T05:23:02.994Z,929.21
2018-06-11T05:24:03.049Z,929.22
2018-06-11T05:25:03.079Z,929.22
2018-06-11T05:26:03.125Z,929.19
2018-06-11T05:27:03.168Z,929.21
2018-06-11T05:28:03.260Z,929.24
2018-06-11T05:29:03.262Z,929.23
2018-06-11T05:30:03.551Z,929.21
2018-06-11T05:31:03.360Z,929.22
2018-06-11T05:32:03.426Z,929.22
2018-06-11T05:33:03.430Z,929.29
2018-06-11T05:34:03.483Z,929.26
2018-06-11T05:35:03.615Z,929.32
2018-06-11T05:36:03.562Z,929.30
2018-06-11T05:37:03.610Z,929.34
2018-06-11T05:38:03.682Z,929.31
2018-06-11T05:39:03.694Z,929.36
2018-06-11T05:40:03.743Z,929.35
2018-06-11T05:41:03.996Z,929.34
2018-06-11T05:42:03.821Z,929.35
2018-06-11T05:43:03.868Z,929.32
2018-06-11T05:44:03.912Z,929.34
2018-06-11T05:45:03.957Z,929.31
2018-06-11T05:46:04.111Z,929.30
2018-06-11T05:47:04.038Z,929.33
2018-06-11T05:48:04.085Z,929.29
2018-06-11T05:49:04.131Z,929.27
2018-06-11T05:50:04.172Z,929.27
2018-06-11T05:51:04.221Z,929.28
2018-06-11T05:52:04.464Z,929.29
2018-06-11T05:53:04.308Z,929.29
2018-06-11T05:54:04.343Z,929.27
2018-06-11T05:55:04.387Z,929.23
2018-06-11T05:56:04.438Z,929.22
2018-06-11T05:57:04.480Z,929.19
2018-06-11T05:58:04.624Z,929.21
2018-06-11T05:59:04.580Z,929.17
2018-06-11T06:00:04.613Z,929.13
2018-06-11T06:01:04.659Z,929.14
2018-06-11T06:02:04.697Z,929.13
2018-06-11T06:03:04.747Z,929.12
2018-06-11T06:04:04.988Z,929.07
2018-06-11T06:05:04.829Z,929.08
2018-06-11T06:06:04.875Z,929.08
2018-06-11T06:07:04.916Z,929.05
2018-06-11T06:08:04.977Z,929.04
2018-06-11T06:09:05.121Z,929.06
2018-06-11T06:10:05.045Z,929.05
2018-06-11T06:11:05.097Z,929.06
2018-06-11T06:12:05.135Z,929.07
2018-06-11T06:13:05.194Z,929.06
2018-06-11T06:14:05.240Z,929.03
2018-06-11T06:15:05.467Z,929.05
2018-06-11T06:16:05.308Z,929.07
2018-06-11T06:17:05.353Z,929.08
2018-06-11T06:18:05.409Z,929.08
2018-06-11T06:19:05.445Z,929.07
2018-06-11T06:20:05.585Z,929.03
2018-06-11T06:21:05.531Z,929.10
2018-06-11T06:22:05.581Z,929.07
2018-06-11T06:23:05.630Z,929.14
2018-06-11T06:24:05.681Z,929.12
2018-06-11T06:25:05.713Z,929.12
2018-06-11T06:26:05.953Z,929.15
2018-06-11T06:27:05.793Z,929.13
2018-06-11T06:28:05.852Z,929.13
2018-06-11T06:29:05.896Z,929.15
2018-06-11T06:30:05.930Z,929.13
2018-06-11T06:31:05.976Z,929.14
2018-06-11T06:32:06.128Z,929.14
2018-06-11T06:33:06.070Z,929.13
2018-06-11T06:34:06.171Z,929.12
2018-06-11T06:35:06.151Z,929.11
2018-06-11T06:36:06.194Z,929.11
2018-06-11T06:37:06.249Z,929.09
2018-06-11T06:38:06.480Z,929.07
2018-06-11T06:39:06.325Z,929.07
2018-06-11T06:40:06.376Z,929.06
2018-06-11T06:41:06.421Z,929.06
2018-06-11T06:42:06.461Z,929.08
2018-06-11T06:43:06.504Z,929.05
2018-06-11T06:44:06.655Z,929.04
2018-06-11T06:45:06.595Z,929.09
2018-06-11T06:46:06.630Z,929.08
2018-06-11T06:47:06.675Z,929.08
2018-06-11T06:48:06.718Z,929.05
2018-06-11T06:49:06.764Z,929.01
2018-06-11T06:50:07.009Z,928.99
2018-06-11T06:51:06.855Z,928.96
2018-06-11T06:52:06.909Z,928.96
2018-06-11T06:53:06.950Z,928.96
2018-06-11T06:54:06.990Z,928.97
2018-06-11T06:55:07.025Z,928.97
2018-06-11T06:56:07.174Z,928.99
2018-06-11T06:57:07.116Z,928.95
2018-06-11T06:58:07.156Z,928.97
2018-06-11T06:59:07.200Z,928.94
2018-06-11T07:00:07.250Z,928.88
2018-06-11T07:01:07.293Z,928.87
2018-06-11T07:02:07.334Z,928.85
2018-06-11T07:03:07.376Z,928.85
2018-06-11T07:04:07.416Z,928.83
2018-06-11T07:05:07.464Z,928.78
2018-06-11T07:06:07.517Z,928.77
2018-06-11T07:07:07.650Z,928.79
2018-06-11T07:08:07.871Z,928.80
2018-06-11T07:09:07.635Z,928.81
2018-06-11T07:10:07.682Z,928.80
2018-06-11T07:11:07.729Z,928.83
2018-06-11T07:12:07.769Z,928.81
2018-06-11T07:13:07.816Z,928.81
2018-06-11T07:14:07.963Z,928.78
2018-06-11T07:15:07.907Z,928.76
2018-06-11T07:16:07.942Z,928.76
2018-06-11T07:17:07.996Z,928.81
2018-06-11T07:18:08.034Z,928.77
2018-06-11T07:19:08.273Z,928.77
2018-06-11T07:20:08.129Z,928.82
2018-06-11T07:21:08.163Z,928.80
2018-06-11T07:22:08.209Z,928.78
2018-06-11T07:23:08.259Z,928.79
2018-06-11T07:24:08.312Z,928.75
2018-06-11T07:25:08.441Z,928.79
2018-06-11T07:26:08.384Z,928.78
2018-06-11T07:27:08.466Z,928.80
2018-06-11T07:28:08.466Z,928.78
2018-06-11T07:29:08.510Z,928.77
2018-06-11T07:30:08.566Z,928.77
2018-06-11T07:31:08.809Z,928.75
2018-06-11T07:32:08.645Z,928.76
2018-06-11T07:33:08.758Z,928.75
2018-06-11T07:34:08.736Z,928.75
2018-06-11T07:35:08.773Z,928.76
2018-06-11T07:36:08.826Z,928.75
2018-06-11T07:37:08.867Z,928.74
2018-06-11T07:38:08.908Z,928.76
2018-06-11T07:39:08.957Z,928.74
2018-06-11T07:40:08.992Z,928.76
2018-06-11T07:41:09.137Z,928.77
2018-06-11T07:42:09.083Z,928.70
2018-06-11T07:43:09.126Z,928.74
2018-06-11T07:44:09.174Z,928.71
2018-06-11T07:45:09.212Z,928.72
2018-06-11T07:46:09.450Z,928.72
2018-06-11T07:47:09.294Z,928.74
2018-06-11T07:48:09.362Z,928.72
2018-06-11T07:49:09.386Z,928.68
2018-06-11T07:50:09.429Z,928.71
2018-06-11T07:51:09.480Z,928.73
2018-06-11T07:52:09.613Z,928.69
2018-06-11T07:53:09.572Z,928.68
2018-06-11T07:54:09.603Z,928.67
2018-06-11T07:55:09.640Z,928.68
2018-06-11T07:56:09.694Z,928.61
2018-06-11T07:57:09.932Z,928.64
2018-06-11T07:58:09.775Z,928.66
2018-06-11T07:59:09.813Z,928.66
2018-06-11T08:00:09.871Z,928.68
2018-06-11T08:01:09.913Z,928.66
2018-06-11T08:02:09.956Z,928.66
2018-06-11T08:03:10.093Z,928.67
2018-06-11T08:04:10.027Z,928.70
2018-06-11T08:05:10.078Z,928.67
2018-06-11T08:06:10.120Z,928.67
2018-06-11T08:07:10.170Z,928.72
2018-06-11T08:08:10.215Z,928.71
2018-06-11T08:09:10.444Z,928.70
2018-06-11T08:10:10.290Z,928.73
2018-06-11T08:11:10.334Z,928.74
2018-06-11T08:12:10.376Z,928.74
2018-06-11T08:13:10.419Z,928.75
2018-06-11T08:14:10.458Z,928.75
2018-06-11T08:15:10.509Z,928.78
2018-06-11T08:16:10.552Z,928.84
2018-06-11T08:17:10.597Z,928.86
2018-06-11T08:18:10.640Z,928.83
2018-06-11T08:19:10.801Z,928.86
2018-06-11T08:20:10.738Z,928.86
2018-06-11T08:21:10.770Z,928.89
2018-06-11T08:22:10.804Z,928.91
2018-06-11T08:23:10.856Z,928.91
2018-06-11T08:24:11.096Z,928.89
2018-06-11T08:25:10.945Z,928.90
2018-06-11T08:26:10.990Z,928.88
2018-06-11T08:27:11.032Z,928.89
2018-06-11T08:28:11.075Z,928.86
2018-06-11T08:29:11.121Z,928.89
2018-06-11T08:30:11.159Z,928.88
2018-06-11T08:31:11.202Z,928.83
2018-06-11T08:32:11.239Z,928.82
2018-06-11T08:33:11.299Z,928.82
2018-06-11T08:34:11.438Z,928.78
2018-06-11T08:35:11.384Z,928.77
2018-06-11T08:36:11.422Z,928.76
2018-06-11T08:37:11.467Z,928.74
2018-06-11T08:38:11.506Z,928.71
2018-06-11T08:39:11.745Z,928.76
2018-06-11T08:40:11.596Z,928.74
2018-06-11T08:41:11.635Z,928.69
2018-06-11T08:42:11.673Z,928.69
2018-06-11T08:43:11.731Z,928.74
2018-06-11T08:44:11.762Z,928.67
2018-06-11T08:45:11.907Z,928.65
2018-06-11T08:46:11.859Z,928.66
2018-06-11T08:47:11.900Z,928.64
2018-06-11T08:48:11.937Z,928.64
2018-06-11T08:49:11.980Z,928.64
2018-06-11T08:50:12.106Z,928.63
2018-06-11T08:51:12.166Z,928.67
2018-06-11T08:52:12.114Z,928.71
2018-06-11T08:53:12.164Z,928.74
2018-06-11T08:54:12.203Z,928.80
2018-06-11T08:55:12.238Z,928.81
2018-06-11T08:56:12.295Z,928.86
2018-06-11T08:57:12.542Z,928.88
2018-06-11T08:58:12.381Z,928.88
2018-06-11T08:59:12.412Z,928.93
2018-06-11T09:00:12.456Z,928.98
2018-06-11T09:01:12.503Z,928.97
2018-06-11T09:02:12.647Z,928.98
2018-06-11T09:03:12.586Z,929.02
2018-06-11T09:04:12.637Z,929.09
2018-06-11T09:05:12.701Z,929.11
2018-06-11T09:06:12.730Z,929.11
2018-06-11T09:07:12.764Z,929.15
2018-06-11T09:08:13.004Z,929.15
2018-06-11T09:09:12.856Z,929.12
2018-06-11T09:10:12.898Z,929.11
2018-06-11T09:11:12.938Z,929.06
2018-06-11T09:12:12.980Z,929.01
2018-06-11T09:13:13.032Z,928.99
2018-06-11T09:14:13.063Z,928.95
2018-06-11T09:15:13.108Z,928.94
2018-06-11T09:16:13.151Z,928.93
2018-06-11T09:17:13.196Z,928.98
2018-06-11T09:18:13.430Z,928.93
2018-06-11T09:19:13.284Z,928.89
2018-06-11T09:20:13.327Z,928.89
2018-06-11T09:21:13.361Z,928.92
2018-06-11T09:22:13.417Z,928.85
2018-06-11T09:23:13.649Z,928.86
2018-06-11T09:24:13.498Z,928.87
2018-06-11T09:25:13.543Z,928.84
2018-06-11T09:26:13.592Z,928.80
2018-06-11T09:27:13.629Z,928.83
2018-06-11T09:28:13.668Z,928.85
2018-06-11T09:29:13.823Z,928.85
2018-06-11T09:30:13.764Z,928.82
2018-06-11T09:31:13.792Z,928.85
2018-06-11T09:32:13.848Z,928.82
2018-06-11T09:33:13.878Z,928.87
2018-06-11T09:34:13.924Z,928.84
2018-06-11T09:35:14.074Z,928.86
2018-06-11T09:36:14.018Z,928.83
2018-06-11T09:37:14.058Z,928.80
2018-06-11T09:38:14.149Z,928.84
2018-06-11T09:39:14.148Z,928.85
2018-06-11T09:40:14.188Z,928.81
2018-06-11T09:41:14.426Z,928.86
2018-06-11T09:42:14.260Z,928.80
2018-06-11T09:43:14.305Z,928.80
2018-06-11T09:44:14.422Z,928.82
2018-06-11T09:45:14.400Z,928.79
2018-06-11T09:46:14.534Z,928.83
2018-06-11T09:47:14.480Z,928.84
2018-06-11T09:48:14.523Z,928.84
2018-06-11T09:49:14.614Z,928.83
2018-06-11T09:50:14.617Z,928.88
2018-06-11T09:51:14.651Z,928.91
2018-06-11T09:52:14.694Z,928.91
2018-06-11T09:53:14.738Z,928.91
2018-06-11T09:54:14.776Z,928.96
2018-06-11T09:55:14.819Z,928.99
2018-06-11T09:56:14.975Z,929.00
2018-06-11T09:57:14.910Z,929.01
2018-06-11T09:58:14.964Z,929.00
2018-06-11T09:59:14.998Z,928.98
2018-06-11T10:00:15.047Z,929.02
2018-06-11T10:01:15.080Z,929.06
2018-06-11T10:02:15.131Z,929.07
2018-06-11T10:03:15.170Z,929.09
2018-06-11T10:04:15.215Z,929.12
2018-06-11T10:05:15.252Z,929.16
2018-06-11T10:06:15.398Z,929.17
2018-06-11T10:07:15.341Z,929.19
2018-06-11T10:08:15.378Z,929.18
2018-06-11T10:09:15.419Z,929.19
2018-06-11T10:10:15.475Z,929.19
2018-06-11T10:11:15.504Z,929.20
2018-06-11T10:12:15.771Z,929.20
2018-06-11T10:13:15.600Z,929.25
2018-06-11T10:14:15.637Z,929.23
2018-06-11T10:15:15.684Z,929.28
2018-06-11T10:16:15.736Z,929.30
2018-06-11T10:17:15.771Z,929.27
2018-06-11T10:18:15.912Z,929.29
2018-06-11T10:19:15.911Z,929.29
2018-06-11T10:20:15.909Z,929.27
2018-06-11T10:21:15.946Z,929.28
2018-06-11T10:22:15.984Z,929.27
2018-06-11T10:23:16.025Z,929.27
2018-06-11T10:24:16.279Z,929.28
2018-06-11T10:25:16.123Z,929.29
2018-06-11T10:26:16.156Z,929.27
2018-06-11T10:27:16.197Z,929.31
2018-06-11T10:28:16.246Z,929.33
2018-06-11T10:29:16.291Z,929.33
2018-06-11T10:30:16.440Z,929.28
2018-06-11T10:31:16.382Z,929.31
2018-06-11T10:32:16.487Z,929.28
2018-06-11T10:33:16.456Z,929.27
2018-06-11T10:34:16.501Z,929.28
2018-06-11T10:35:16.545Z,929.28
2018-06-11T10:36:16.793Z,929.31
2018-06-11T10:37:16.641Z,929.32
2018-06-11T10:38:16.680Z,929.32
2018-06-11T10:39:16.719Z,929.34
2018-06-11T10:40:16.763Z,929.36
2018-06-11T10:41:16.908Z,929.37
2018-06-11T10:42:16.962Z,929.36
2018-06-11T10:43:16.897Z,929.39
2018-06-11T10:44:16.955Z,929.38
2018-06-11T10:45:16.987Z,929.36
2018-06-11T10:46:17.035Z,929.40
2018-06-11T10:47:17.179Z,929.44
2018-06-11T10:48:17.317Z,929.49
2018-06-11T10:49:17.172Z,929.43
2018-06-11T10:50:17.218Z,929.50
2018-06-11T10:51:17.253Z,929.49
2018-06-11T10:52:17.304Z,929.49
2018-06-11T10:53:17.448Z,929.57
2018-06-11T10:54:17.498Z,929.54
2018-06-11T10:55:17.439Z,929.58
2018-06-11T10:56:17.497Z,929.62
2018-06-11T10:57:17.543Z,929.63
2018-06-11T10:58:17.581Z,929.64
2018-06-11T10:59:17.829Z,929.69
2018-06-11T11:00:17.682Z,929.72
2018-06-11T11:01:17.727Z,929.75
2018-06-11T11:02:17.763Z,929.71
2018-06-11T11:03:17.823Z,929.74
2018-06-11T11:04:17.867Z,929.72
2018-06-11T11:05:18.023Z,929.73
2018-06-11T11:06:17.952Z,929.69
2018-06-11T11:07:18.000Z,929.69
2018-06-11T11:08:18.053Z,929.67
2018-06-11T11:09:18.104Z,929.65
2018-06-11T11:10:18.162Z,929.64
2018-06-11T11:11:18.397Z,929.66
2018-06-11T11:12:18.245Z,929.65
2018-06-11T11:13:18.296Z,929.65
2018-06-11T11:14:18.363Z,929.64
2018-06-11T11:15:18.407Z,929.63
2018-06-11T11:16:18.455Z,929.66
2018-06-11T11:17:18.493Z,929.67
2018-06-11T11:18:18.553Z,929.69
2018-06-11T11:19:18.594Z,929.68
2018-06-11T11:20:18.649Z,929.70
2018-06-11T11:21:18.701Z,929.72
2018-06-11T11:22:18.844Z,929.71
2018-06-11T11:23:18.792Z,929.68
2018-06-11T11:24:18.845Z,929.69
2018-06-11T11:25:18.897Z,929.72
2018-06-11T11:26:18.940Z,929.69
2018-06-11T11:27:18.989Z,929.69
2018-06-11T11:28:19.245Z,929.78
2018-06-11T11:29:19.086Z,929.82
2018-06-11T11:30:19.149Z,929.85
2018-06-11T11:31:19.193Z,929.91
2018-06-11T11:32:19.236Z,929.91
2018-06-11T11:33:19.283Z,929.95
2018-06-11T11:34:19.425Z,929.93
2018-06-11T11:35:19.376Z,929.92
2018-06-11T11:36:19.431Z,929.93
2018-06-11T11:37:19.474Z,929.90
2018-06-11T11:38:19.533Z,929.93
2018-06-11T11:39:19.774Z,929.92
2018-06-11T11:40:19.625Z,929.92
2018-06-11T11:41:19.666Z,929.97
2018-06-11T11:42:19.725Z,929.94
2018-06-11T11:43:19.766Z,929.93
2018-06-11T11:44:19.818Z,929.97
2018-06-11T11:45:19.955Z,929.95
2018-06-11T11:46:19.913Z,929.97
2018-06-11T11:47:19.969Z,929.96
2018-06-11T11:48:20.012Z,929.95
2018-06-11T11:49:20.065Z,929.96
2018-06-11T11:50:20.107Z,930.00
2018-06-11T11:51:20.147Z,929.97
2018-06-11T11:52:20.209Z,929.98
2018-06-11T11:53:20.256Z,929.99
2018-06-11T11:54:20.310Z,929.99
2018-06-11T11:55:20.343Z,929.99
2018-06-11T11:56:20.396Z,929.95
2018-06-11T11:57:20.454Z,929.93
2018-06-11T11:58:20.495Z,929.94
2018-06-11T11:59:20.549Z,929.92
2018-06-11T12:00:20.598Z,929.93
2018-06-11T12:01:20.747Z,929.94
2018-06-11T12:02:20.896Z,929.90
2018-06-11T12:03:20.752Z,929.93
2018-06-11T12:04:20.812Z,929.91
2018-06-11T12:05:20.860Z,929.97
2018-06-11T12:06:20.898Z,929.96
2018-06-11T12:07:20.963Z,929.98
2018-06-11T12:08:21.103Z,930.00
2018-06-11T12:09:21.057Z,929.99
2018-06-11T12:10:21.116Z,929.97
2018-06-11T12:11:21.151Z,929.99
2018-06-11T12:12:21.212Z,930.02
2018-06-11T12:13:21.256Z,930.06
2018-06-11T12:14:21.512Z,930.06
2018-06-11T12:15:21.376Z,930.05
2018-06-11T12:16:21.422Z,930.00
2018-06-11T12:17:21.466Z,930.02
2018-06-11T12:18:21.533Z,930.05
2018-06-11T12:19:21.565Z,930.06
2018-06-11T12:20:21.816Z,930.05
2018-06-11T12:21:21.666Z,930.03
2018-06-11T12:22:21.770Z,930.07
2018-06-11T12:23:21.775Z,930.07
2018-06-11T12:24:21.825Z,930.11
2018-06-11T12:25:21.984Z,930.10
2018-06-11T12:26:21.926Z,930.10
2018-06-11T12:27:21.988Z,930.12
2018-06-11T12:28:22.037Z,930.11
2018-06-11T12:29:22.087Z,930.10